Time;durP1;ratioP1;P1;durP2;ratioP2;P2;SDS_P1;SDS_P2;PMS_P1;PMS_P2;Temp;Humidity;BMP_temperature;BMP_pressure;BME280_temperature;BME280_humidity;BME280_pressure;Samples;Min_cycle;Max_cycle;Signal;HPM_P1;HPM_P2
2021/12/01 00:00:30;;;;;;;;;;;;;;;-143.90;100.00;55581.84;2075179;28;19956;-68
2021/12/01 00:01:51;;;;;;;;;;;;;;;-143.90;100.00;55631.47;2080796;28;20000;-63
2021/12/01 00:03:11;;;;;;;;;;;;;;;-143.90;100.00;55587.78;2078447;28;20027;-65
2021/12/01 00:04:32;;;;;;;;;;;;;;;-143.90;100.00;55587.78;2080784;28;19920;-65
2021/12/01 00:05:53;;;;;;;;;;;;;;;-143.90;100.00;55611.63;2080339;28;19921;-65
2021/12/01 00:07:14;;;;;;;;;;;;;;;-143.90;100.00;55560.00;2073298;28;19925;-65
2021/12/01 00:08:34;;;;;;;;;;;;;;;-143.90;100.00;55597.72;2079393;28;20454;-65
2021/12/01 00:09:55;;;;;;;;;;;;;;;-143.90;100.00;55615.59;2081795;28;19951;-64
2021/12/01 00:11:15;;;;;;;;;;;;;;;-143.90;100.00;55587.78;2082112;28;19921;-66
2021/12/01 00:12:37;;;;;;;;;;;;;;;-143.90;100.00;55571.91;2082437;28;20010;-65
2021/12/01 00:13:57;;;;;;;;;;;;;;;-143.90;100.00;55579.84;2080606;28;19929;-65
2021/12/01 00:15:18;;;;;;;;;;;;;;;-143.90;100.00;55609.63;2081633;28;19920;-65
2021/12/01 00:16:39;;;;;;;;;;;;;;;-143.90;100.00;55565.94;2082126;28;19925;-66
2021/12/01 00:18:00;;;;;;;;;;;;;;;-143.90;100.00;55573.88;2082362;28;20427;-65
2021/12/01 00:19:20;;;;;;;;;;;;;;;-143.90;100.00;55595.72;2084182;28;19979;-65
2021/12/01 00:20:41;;;;;;;;;;;;;;;-143.90;100.00;55569.91;2081179;28;19971;-64
2021/12/01 00:22:02;;;;;;;;;;;;;;;-143.90;100.00;55579.84;2081180;28;20007;-64
2021/12/01 00:23:24;;;;;;;;;;;;;;;-143.90;100.00;55552.03;2080855;28;19921;-64
2021/12/01 00:24:44;;;;;;;;;;;;;;;-143.90;100.00;55603.69;2082691;28;19921;-65
2021/12/01 00:26:05;;;;;;;;;;;;;;;-143.90;100.00;55635.44;2082390;28;20398;-65
2021/12/01 00:27:26;;;;;;;;;;;;;;;-143.90;100.00;55569.91;2082771;28;19921;-65
2021/12/01 00:28:47;;;;;;;;;;;;;;;-143.90;100.00;55546.09;2081600;28;20023;-65
2021/12/01 00:30:08;;;;;;;;;;;;;;;-143.90;100.00;55587.78;2082466;28;19932;-65
2021/12/01 00:31:28;;;;;;;;;;;;;;;-143.90;100.00;55591.75;2080362;28;20451;-64
2021/12/01 00:32:51;;;;;;;;;;;;;;;-143.90;100.00;55571.91;2081733;28;19949;-65
2021/12/01 00:34:12;;;;;;;;;;;;;;;-143.90;100.00;55575.88;2082112;28;19925;-64
2021/12/01 00:35:33;;;;;;;;;;;;;;;-143.90;100.00;55611.63;2080584;28;19921;-65
2021/12/01 00:36:53;;;;;;;;;;;;;;;-143.90;100.00;55575.88;2080123;28;19975;-65
2021/12/01 00:38:14;;;;;;;;;;;;;;;-143.90;100.00;55603.69;2079563;28;19965;-65
2021/12/01 00:39:36;;;;;;;;;;;;;;;-143.90;100.00;55560.00;2082873;28;19929;-65
2021/12/01 00:40:56;;;;;;;;;;;;;;;-143.90;100.00;55599.69;2080378;28;19967;-65
2021/12/01 00:42:18;;;;;;;;;;;;;;;-143.90;100.00;55579.84;2080313;28;19928;-65
2021/12/01 00:43:40;;;;;;;;;;;;;;;-143.90;100.00;55563.97;2082852;28;19924;-65
2021/12/01 00:45:07;;;;;;;;;;;;;;;-143.90;100.00;55583.81;2080840;28;19921;-65
2021/12/01 00:46:42;;;;;;;;;;;;;;;-143.90;100.00;55619.56;2080670;28;19921;-65
2021/12/01 00:48:03;;;;;;;;;;;;;;;-143.90;100.00;55571.91;2080938;28;19917;-65
2021/12/01 00:49:24;;;;;;;;;;;;;;;-143.90;100.00;55583.81;2080729;28;19928;-65
2021/12/01 00:50:46;;;;;;;;;;;;;;;-143.90;100.00;55587.78;2079448;28;19921;-65
2021/12/01 00:52:09;;;;;;;;;;;;;;;-143.90;100.00;55575.88;2082199;28;19964;-65
2021/12/01 00:53:30;;;;;;;;;;;;;;;-143.90;100.00;55631.47;2081095;28;19925;-65
2021/12/01 00:54:51;;;;;;;;;;;;;;;-143.90;100.00;55603.69;2081722;28;19931;-65
2021/12/01 00:56:12;;;;;;;;;;;;;;;-143.90;100.00;55607.66;2082080;28;20620;-65
2021/12/01 00:57:32;;;;;;;;;;;;;;;-143.90;100.00;55603.69;2080870;28;20261;-65
2021/12/01 00:58:54;;;;;;;;;;;;;;;-143.90;100.00;55544.09;2080834;28;19926;-65
2021/12/01 01:00:14;;;;;;;;;;;;;;;-143.90;100.00;55627.50;2081761;28;19925;-68
2021/12/01 01:01:35;;;;;;;;;;;;;;;-143.90;100.00;55615.59;2080265;28;19921;-68
2021/12/01 01:02:57;;;;;;;;;;;;;;;-143.90;100.00;55599.69;2076242;28;20023;-68
2021/12/01 01:04:18;;;;;;;;;;;;;;;-143.90;100.00;55583.81;2078582;28;20019;-67
2021/12/01 01:05:39;;;;;;;;;;;;;;;-143.90;100.00;55569.91;2074847;28;19972;-65
2021/12/01 01:07:00;;;;;;;;;;;;;;;-143.90;100.00;55571.91;2081041;28;19921;-65
2021/12/01 01:08:20;;;;;;;;;;;;;;;-143.90;100.00;55597.72;2081631;28;19920;-64
2021/12/01 01:09:43;;;;;;;;;;;;;;;-143.90;100.00;55595.72;2080538;28;19928;-65
2021/12/01 01:17:39;;;;;;;;;;;;;;;-143.90;100.00;55603.69;2082011;28;19925;-65
2021/12/01 01:19:00;;;;;;;;;;;;;;;-143.90;100.00;55579.84;2080497;28;19921;-63
2021/12/01 01:20:21;;;;;;;;;;;;;;;-143.90;100.00;55595.72;2081409;28;20307;-65
2021/12/01 01:21:46;;;;;;;;;;;;;;;-143.90;100.00;55623.53;2080481;28;19927;-65
2021/12/01 01:23:07;;;;;;;;;;;;;;;-143.90;100.00;55607.66;2081742;28;19927;-65
2021/12/01 01:24:28;;;;;;;;;;;;;;;-143.90;100.00;55575.88;2082095;28;19917;-64
2021/12/01 01:25:48;;;;;;;;;;;;;;;-143.90;100.00;55603.69;2082634;28;19925;-65
2021/12/01 01:27:09;;;;;;;;;;;;;;;-143.90;100.00;55587.78;2080049;28;19920;-65
2021/12/01 01:28:30;;;;;;;;;;;;;;;-143.90;100.00;55587.78;2082474;28;19928;-66
2021/12/01 01:29:51;;;;;;;;;;;;;;;-143.90;100.00;55599.69;2080645;28;20387;-66
2021/12/01 01:31:11;;;;;;;;;;;;;;;-143.90;100.00;55583.81;2080240;28;19968;-65
2021/12/01 01:32:33;;;;;;;;;;;;;;;-143.90;100.00;55575.88;2082439;28;20273;-64
2021/12/01 01:33:53;;;;;;;;;;;;;;;-143.90;100.00;55575.88;2080689;28;19924;-65
2021/12/01 01:35:14;;;;;;;;;;;;;;;-143.90;100.00;55583.81;2080690;28;19955;-64
2021/12/01 01:36:35;;;;;;;;;;;;;;;-143.90;100.00;55583.81;2079510;28;19925;-65
2021/12/01 01:37:56;;;;;;;;;;;;;;;-143.90;100.00;55579.84;2080936;28;20008;-65
2021/12/01 01:39:17;;;;;;;;;;;;;;;-143.90;100.00;55599.69;2081330;28;19928;-65
2021/12/01 01:40:38;;;;;;;;;;;;;;;-143.90;100.00;55587.78;2082030;28;19999;-65
2021/12/01 01:41:58;;;;;;;;;;;;;;;-143.90;100.00;55579.84;2081131;28;19943;-67
2021/12/01 01:43:24;;;;;;;;;;;;;;;-143.90;100.00;55601.69;2081762;28;19931;-66
2021/12/01 01:44:44;;;;;;;;;;;;;;;-143.90;100.00;55579.84;2081252;28;19928;-65
2021/12/01 01:46:05;;;;;;;;;;;;;;;-143.90;100.00;55595.72;2079895;28;20683;-65
2021/12/01 01:47:26;;;;;;;;;;;;;;;-143.90;100.00;55595.72;2081588;28;19920;-65
2021/12/01 01:48:54;;;;;;;;;;;;;;;-143.90;100.00;55607.66;2080351;28;19920;-65
2021/12/01 01:50:26;;;;;;;;;;;;;;;-143.90;100.00;55595.72;2081821;28;20739;-65
2021/12/01 01:51:48;;;;;;;;;;;;;;;-143.90;100.00;55605.66;2081029;28;19920;-65
2021/12/01 01:53:17;;;;;;;;;;;;;;;-143.90;100.00;55611.63;2074309;28;19995;-65
2021/12/01 01:54:37;;;;;;;;;;;;;;;-143.90;100.00;55571.91;2082188;28;19970;-65
2021/12/01 01:56:00;;;;;;;;;;;;;;;-143.90;100.00;55556.00;2079742;28;19932;-65
2021/12/01 01:57:21;;;;;;;;;;;;;;;-143.90;100.00;55591.75;2079705;28;19920;-64
2021/12/01 01:58:41;;;;;;;;;;;;;;;-143.90;100.00;55605.66;2079817;28;20031;-64
2021/12/01 02:00:07;;;;;;;;;;;;;;;-143.90;100.00;55563.97;2075124;28;19921;-65
2021/12/01 02:01:44;;;;;;;;;;;;;;;-143.90;100.00;55583.81;2079240;28;19928;-65
2021/12/01 02:03:05;;;;;;;;;;;;;;;-143.90;100.00;55575.88;2074386;28;19921;-66
2021/12/01 02:04:27;;;;;;;;;;;;;;;-143.90;100.00;55567.94;2081540;28;19991;-65
2021/12/01 02:05:48;;;;;;;;;;;;;;;-143.90;100.00;55599.69;2079299;28;19924;-64
2021/12/01 02:07:09;;;;;;;;;;;;;;;-143.90;100.00;55563.97;2073105;28;19928;-65
2021/12/01 02:08:32;;;;;;;;;;;;;;;-143.90;100.00;55597.72;2078672;28;19943;-64
2021/12/01 02:09:52;;;;;;;;;;;;;;;-143.90;100.00;55591.75;2082934;28;20702;-65
2021/12/01 02:11:14;;;;;;;;;;;;;;;-143.90;100.00;55587.78;2080755;28;19939;-64
2021/12/01 02:12:37;;;;;;;;;;;;;;;-143.90;100.00;55623.53;2081195;28;19921;-64
2021/12/01 02:13:58;;;;;;;;;;;;;;;-143.90;100.00;55591.75;2080203;28;20724;-65
2021/12/01 02:15:19;;;;;;;;;;;;;;;-143.90;100.00;55611.63;2080748;28;19920;-66
2021/12/01 02:16:41;;;;;;;;;;;;;;;-143.90;100.00;55587.78;2081699;28;19952;-64
2021/12/01 02:18:02;;;;;;;;;;;;;;;-143.90;100.00;55573.88;2082037;28;19932;-63
2021/12/01 02:19:23;;;;;;;;;;;;;;;-143.90;100.00;55607.66;2082171;28;19949;-65
2021/12/01 02:21:02;;;;;;;;;;;;;;;-143.90;100.00;55611.63;2080584;28;19964;-64
2021/12/01 02:22:22;;;;;;;;;;;;;;;-143.90;100.00;55583.81;2079865;28;19921;-65
2021/12/01 02:23:47;;;;;;;;;;;;;;;-143.90;100.00;55597.72;2078557;28;20392;-64
2021/12/01 02:25:08;;;;;;;;;;;;;;;-143.90;100.00;55601.69;2077039;28;20336;-64
2021/12/01 02:26:30;;;;;;;;;;;;;;;-143.90;100.00;55603.69;2075941;28;19929;-64
2021/12/01 02:27:51;;;;;;;;;;;;;;;-143.90;100.00;55526.22;2081410;28;20043;-65
2021/12/01 02:29:13;;;;;;;;;;;;;;;-143.90;100.00;55591.75;2074382;28;20086;-65
2021/12/01 02:30:33;;;;;;;;;;;;;;;-143.90;100.00;55567.94;2081245;28;19924;-65
2021/12/01 02:31:54;;;;;;;;;;;;;;;-143.90;100.00;55619.56;2080937;28;19925;-65
2021/12/01 02:33:15;;;;;;;;;;;;;;;-143.90;100.00;55591.75;2078956;28;19921;-65
2021/12/01 02:34:38;;;;;;;;;;;;;;;-143.90;100.00;55607.66;2081541;28;20039;-64
2021/12/01 02:35:59;;;;;;;;;;;;;;;-143.90;100.00;55583.81;2082208;28;19925;-65
2021/12/01 02:37:21;;;;;;;;;;;;;;;-143.90;100.00;55611.63;2080755;28;19921;-66
2021/12/01 02:38:43;;;;;;;;;;;;;;;-143.90;100.00;55623.53;2081225;28;19924;-64
2021/12/01 02:40:04;;;;;;;;;;;;;;;-143.90;100.00;55595.72;2078194;28;19999;-64
2021/12/01 02:41:27;;;;;;;;;;;;;;;-143.90;100.00;55567.94;2082088;28;19929;-64
2021/12/01 02:42:47;;;;;;;;;;;;;;;-143.90;100.00;55579.84;2080299;28;20083;-64
2021/12/01 02:44:10;;;;;;;;;;;;;;;-143.90;100.00;55585.81;2080670;28;20545;-64
2021/12/01 02:45:30;;;;;;;;;;;;;;;-143.90;100.00;55637.44;2078966;28;20459;-64
2021/12/01 02:46:51;;;;;;;;;;;;;;;-143.90;100.00;55579.84;2081356;28;19917;-64
2021/12/01 02:48:14;;;;;;;;;;;;;;;-143.90;100.00;55589.78;2080047;28;19929;-64
2021/12/01 02:49:34;;;;;;;;;;;;;;;-143.90;100.00;55583.81;2082100;28;19925;-63
2021/12/01 02:50:55;;;;;;;;;;;;;;;-143.90;100.00;55599.69;2081810;28;19943;-64
2021/12/01 02:52:16;;;;;;;;;;;;;;;-143.90;100.00;55627.50;2080146;28;19921;-63
2021/12/01 02:53:36;;;;;;;;;;;;;;;-143.90;100.00;55599.69;2082154;28;20019;-65
2021/12/01 02:54:58;;;;;;;;;;;;;;;-143.90;100.00;55633.47;2075531;28;20012;-65
2021/12/01 02:56:21;;;;;;;;;;;;;;;-143.90;100.00;55617.56;2077790;28;19944;-65
2021/12/01 02:57:49;;;;;;;;;;;;;;;-143.90;100.00;55603.69;2071537;28;19960;-64
2021/12/01 02:59:10;;;;;;;;;;;;;;;-143.90;100.00;55583.81;2069990;28;19973;-65
2021/12/01 03:00:31;;;;;;;;;;;;;;;-143.90;100.00;55583.81;2064397;28;19925;-65
2021/12/01 03:01:53;;;;;;;;;;;;;;;-143.90;100.00;55631.47;2072975;28;20450;-64
2021/12/01 03:03:13;;;;;;;;;;;;;;;-143.90;100.00;55615.59;2089656;28;20399;-64
2021/12/01 03:04:34;;;;;;;;;;;;;;;-143.90;100.00;55603.69;2090088;28;19974;-64
2021/12/01 03:05:55;;;;;;;;;;;;;;;-143.90;100.00;55647.38;2088297;28;19989;-65
2021/12/01 03:07:15;;;;;;;;;;;;;;;-143.90;100.00;55591.75;2081999;28;19921;-64
2021/12/01 03:08:37;;;;;;;;;;;;;;;-143.90;100.00;55631.47;2079309;28;19928;-64
2021/12/01 03:09:57;;;;;;;;;;;;;;;-143.90;100.00;55603.69;2083944;28;19920;-63
2021/12/01 03:11:19;;;;;;;;;;;;;;;-143.90;100.00;55599.69;2088619;28;20019;-64
2021/12/01 03:12:40;;;;;;;;;;;;;;;-143.90;100.00;55577.84;2088250;28;19927;-64
2021/12/01 03:14:00;;;;;;;;;;;;;;;-143.90;100.00;55627.50;2089937;28;20007;-65
2021/12/01 03:15:21;;;;;;;;;;;;;;;-143.90;100.00;55593.75;2090506;28;19925;-64
2021/12/01 03:16:43;;;;;;;;;;;;;;;-143.90;100.00;55599.69;2088868;28;20458;-65
2021/12/01 03:18:04;;;;;;;;;;;;;;;-143.90;100.00;55599.69;2089909;28;19920;-63
2021/12/01 03:19:24;;;;;;;;;;;;;;;-143.90;100.00;55583.81;2088139;28;19921;-65
2021/12/01 03:20:46;;;;;;;;;;;;;;;-143.90;100.00;55575.88;2087445;28;20027;-65
2021/12/01 03:22:11;;;;;;;;;;;;;;;-143.90;100.00;55589.78;2090361;28;20012;-65
2021/12/01 03:23:32;;;;;;;;;;;;;;;-143.90;100.00;55595.72;2089495;28;20356;-65
2021/12/01 03:24:53;;;;;;;;;;;;;;;-143.90;100.00;55599.69;2088122;28;19967;-65
2021/12/01 03:26:14;;;;;;;;;;;;;;;-143.90;100.00;55627.50;2082722;28;19927;-64
2021/12/01 03:27:36;;;;;;;;;;;;;;;-143.90;100.00;55579.84;2081907;28;19921;-65
2021/12/01 03:28:57;;;;;;;;;;;;;;;-143.90;100.00;55625.53;2088275;28;19935;-63
2021/12/01 03:30:17;;;;;;;;;;;;;;;-143.90;100.00;55621.53;2091649;28;19950;-64
2021/12/01 03:31:38;;;;;;;;;;;;;;;-143.90;100.00;55607.66;2092109;28;20002;-65
2021/12/01 03:32:59;;;;;;;;;;;;;;;-143.90;100.00;55589.78;2091551;28;19982;-65
2021/12/01 03:34:21;;;;;;;;;;;;;;;-143.90;100.00;55573.88;2090585;28;19924;-65
2021/12/01 03:35:42;;;;;;;;;;;;;;;-143.90;100.00;55595.72;2089527;28;19971;-64
2021/12/01 03:37:03;;;;;;;;;;;;;;;-143.90;100.00;55601.69;2090658;28;20754;-64
2021/12/01 03:38:26;;;;;;;;;;;;;;;-143.90;100.00;55615.59;2089227;28;19927;-64
2021/12/01 03:39:48;;;;;;;;;;;;;;;-143.90;100.00;55571.91;2090506;28;19920;-65
2021/12/01 03:41:09;;;;;;;;;;;;;;;-143.90;100.00;55587.78;2089299;28;19990;-65
2021/12/01 03:42:30;;;;;;;;;;;;;;;-143.90;100.00;55599.69;2082781;28;20011;-65
2021/12/01 03:43:51;;;;;;;;;;;;;;;-143.90;100.00;55631.47;2087598;28;19920;-65
2021/12/01 03:45:12;;;;;;;;;;;;;;;-143.90;100.00;55621.53;2090983;28;20375;-66
2021/12/01 03:46:33;;;;;;;;;;;;;;;-143.90;100.00;55587.78;2090561;28;20656;-65
2021/12/01 03:47:54;;;;;;;;;;;;;;;-143.90;100.00;55619.56;2088877;28;20436;-65
2021/12/01 03:49:15;;;;;;;;;;;;;;;-143.90;100.00;55631.47;2088715;28;19927;-64
2021/12/01 03:50:36;;;;;;;;;;;;;;;-143.90;100.00;55639.41;2090154;28;20007;-64
2021/12/01 03:51:57;;;;;;;;;;;;;;;-143.90;100.00;55605.66;2090175;28;19959;-64
2021/12/01 03:53:18;;;;;;;;;;;;;;;-143.90;100.00;55615.59;2088269;28;19924;-65
2021/12/01 03:54:39;;;;;;;;;;;;;;;-143.90;100.00;55581.84;2084081;28;19955;-65
2021/12/01 03:56:00;;;;;;;;;;;;;;;-143.90;100.00;55603.69;2080255;28;19999;-65
2021/12/01 03:57:21;;;;;;;;;;;;;;;-143.90;100.00;55565.94;2088524;28;19920;-65
2021/12/01 03:58:41;;;;;;;;;;;;;;;-143.90;100.00;55605.66;2082237;28;19951;-64
2021/12/01 04:00:06;;;;;;;;;;;;;;;-143.90;100.00;55615.59;2089366;28;21336;-65
2021/12/01 04:01:33;;;;;;;;;;;;;;;-143.90;100.00;55563.97;2090087;28;20285;-64
2021/12/01 04:02:53;;;;;;;;;;;;;;;-143.90;100.00;55579.84;2089457;28;19920;-64
2021/12/01 04:04:14;;;;;;;;;;;;;;;-143.90;100.00;55587.78;2089207;28;20342;-64
2021/12/01 04:05:35;;;;;;;;;;;;;;;-143.90;100.00;55595.72;2090781;28;19928;-66
2021/12/01 04:06:55;;;;;;;;;;;;;;;-143.90;100.00;55556.00;2088929;28;20023;-65
2021/12/01 04:08:16;;;;;;;;;;;;;;;-143.90;100.00;55611.63;2090109;28;20024;-65
2021/12/01 04:09:38;;;;;;;;;;;;;;;-143.90;100.00;55589.78;2090289;28;19982;-65
2021/12/01 04:10:58;;;;;;;;;;;;;;;-143.90;100.00;55575.88;2090920;28;19985;-65
2021/12/01 04:12:19;;;;;;;;;;;;;;;-143.90;100.00;55607.66;2090714;28;19916;-65
2021/12/01 04:13:40;;;;;;;;;;;;;;;-143.90;100.00;55589.78;2082594;28;19927;-65
2021/12/01 04:15:00;;;;;;;;;;;;;;;-143.90;100.00;55603.69;2087919;28;19928;-64
2021/12/01 04:16:22;;;;;;;;;;;;;;;-143.90;100.00;55581.84;2090930;28;19932;-65
2021/12/01 04:17:42;;;;;;;;;;;;;;;-143.90;100.00;55573.88;2091537;28;19921;-64
2021/12/01 04:19:03;;;;;;;;;;;;;;;-143.90;100.00;55599.69;2090177;28;19924;-64
2021/12/01 04:20:24;;;;;;;;;;;;;;;-143.90;100.00;55579.84;2089572;28;19931;-63
2021/12/01 04:21:45;;;;;;;;;;;;;;;-143.90;100.00;55587.78;2088053;28;19928;-65
2021/12/01 04:23:05;;;;;;;;;;;;;;;-143.90;100.00;55619.56;2091312;28;19950;-64
2021/12/01 04:24:26;;;;;;;;;;;;;;;-143.90;100.00;55611.63;2089893;28;19928;-64
2021/12/01 04:25:47;;;;;;;;;;;;;;;-143.90;100.00;55607.66;2088856;28;19967;-65
2021/12/01 04:27:09;;;;;;;;;;;;;;;-143.90;100.00;55583.81;2090399;28;19951;-65
2021/12/01 04:28:30;;;;;;;;;;;;;;;-143.90;100.00;55627.50;2089611;28;19931;-64
2021/12/01 04:29:50;;;;;;;;;;;;;;;-143.90;100.00;55623.53;2089231;28;20266;-65
2021/12/01 04:31:12;;;;;;;;;;;;;;;-143.90;100.00;55607.66;2090755;28;20019;-64
2021/12/01 04:32:33;;;;;;;;;;;;;;;-143.90;100.00;55563.97;2090828;28;20031;-64
2021/12/01 04:33:53;;;;;;;;;;;;;;;-143.90;100.00;55583.81;2088273;28;19932;-65
2021/12/01 04:35:17;;;;;;;;;;;;;;;-143.90;100.00;55560.00;2082793;28;19921;-64
2021/12/01 04:36:41;;;;;;;;;;;;;;;-143.90;100.00;55619.56;2086285;28;19928;-65
2021/12/01 04:38:03;;;;;;;;;;;;;;;-143.90;100.00;55563.97;2088708;28;19924;-65
2021/12/01 04:39:23;;;;;;;;;;;;;;;-143.90;100.00;55595.72;2088811;28;19921;-64
2021/12/01 04:40:44;;;;;;;;;;;;;;;-143.90;100.00;55635.44;2090361;28;19920;-65
2021/12/01 04:42:06;;;;;;;;;;;;;;;-143.90;100.00;55571.91;2090483;28;20035;-65
2021/12/01 04:43:26;;;;;;;;;;;;;;;-143.90;100.00;55599.69;2088128;28;20054;-65
2021/12/01 04:44:47;;;;;;;;;;;;;;;-143.90;100.00;55623.53;2091283;28;19927;-65
2021/12/01 04:46:08;;;;;;;;;;;;;;;-143.90;100.00;55607.66;2092465;28;19921;-66
2021/12/01 04:47:32;;;;;;;;;;;;;;;-143.90;100.00;55603.69;2090001;28;19948;-64
2021/12/01 04:48:53;;;;;;;;;;;;;;;-143.90;100.00;55567.94;2089428;28;19935;-65
2021/12/01 04:50:14;;;;;;;;;;;;;;;-143.90;100.00;55627.50;2087846;28;20490;-64
2021/12/01 04:51:35;;;;;;;;;;;;;;;-143.90;100.00;55619.56;2090459;28;19959;-64
2021/12/01 04:52:58;;;;;;;;;;;;;;;-143.90;100.00;55563.97;2089508;28;19974;-64
2021/12/01 04:54:18;;;;;;;;;;;;;;;-143.90;100.00;55603.69;2083395;28;19920;-65
2021/12/01 04:55:39;;;;;;;;;;;;;;;-143.90;100.00;55619.56;2087599;28;19933;-64
2021/12/01 04:57:00;;;;;;;;;;;;;;;-143.90;100.00;55609.63;2089089;28;19927;-66
2021/12/01 04:58:21;;;;;;;;;;;;;;;-143.90;100.00;55579.84;2080361;28;19921;-66
2021/12/01 04:59:41;;;;;;;;;;;;;;;-143.90;100.00;55591.75;2085049;28;19924;-65
2021/12/01 05:01:03;;;;;;;;;;;;;;;-143.90;100.00;55571.91;2088393;28;21250;-63
2021/12/01 05:02:23;;;;;;;;;;;;;;;-143.90;100.00;55589.78;2088143;28;20338;-63
2021/12/01 05:03:44;;;;;;;;;;;;;;;-143.90;100.00;55567.94;2088144;28;20011;-65
2021/12/01 05:05:05;;;;;;;;;;;;;;;-143.90;100.00;55607.66;2089947;28;19932;-65
2021/12/01 05:06:26;;;;;;;;;;;;;;;-143.90;100.00;55583.81;2090202;28;19927;-65
2021/12/01 05:07:47;;;;;;;;;;;;;;;-143.90;100.00;55579.84;2089155;28;20015;-65
2021/12/01 05:09:08;;;;;;;;;;;;;;;-143.90;100.00;55571.91;2088660;28;19921;-65
2021/12/01 05:10:29;;;;;;;;;;;;;;;-143.90;100.00;55621.53;2089515;28;20699;-65
2021/12/01 05:11:49;;;;;;;;;;;;;;;-143.90;100.00;55603.69;2090160;28;19995;-64
2021/12/01 05:13:10;;;;;;;;;;;;;;;-143.90;100.00;55583.81;2089225;28;19999;-64
2021/12/01 05:14:31;;;;;;;;;;;;;;;-143.90;100.00;55573.88;2089034;28;19951;-65
2021/12/01 05:15:52;;;;;;;;;;;;;;;-143.90;100.00;55621.53;2089109;28;19994;-65
2021/12/01 05:17:12;;;;;;;;;;;;;;;-143.90;100.00;55579.84;2087545;28;20379;-65
2021/12/01 05:18:33;;;;;;;;;;;;;;;-143.90;100.00;55587.78;2089511;28;19927;-65
2021/12/01 05:19:54;;;;;;;;;;;;;;;-143.90;100.00;55591.75;2089347;28;19916;-65
2021/12/01 05:21:14;;;;;;;;;;;;;;;-143.90;100.00;55597.72;2091111;28;19928;-65
2021/12/01 05:22:35;;;;;;;;;;;;;;;-143.90;100.00;55579.84;2088937;28;19955;-65
2021/12/01 05:23:56;;;;;;;;;;;;;;;-143.90;100.00;55587.78;2088742;28;19943;-65
2021/12/01 05:25:16;;;;;;;;;;;;;;;-143.90;100.00;55581.84;2089613;28;19921;-65
2021/12/01 05:26:37;;;;;;;;;;;;;;;-143.90;100.00;55591.75;2084098;28;19921;-65
2021/12/01 05:27:58;;;;;;;;;;;;;;;-143.90;100.00;55627.50;2089450;28;20403;-65
2021/12/01 05:29:20;;;;;;;;;;;;;;;-143.90;100.00;55621.53;2089021;28;19927;-65
2021/12/01 05:30:29;;;;;;;;;;;;;;;-143.90;100.00;55587.78;2089419;28;19998;-65
2021/12/01 05:31:41;;;;;;;;;;;;;;;-143.90;100.00;55635.44;2089370;28;20292;-66
2021/12/01 05:33:08;;;;;;;;;;;;;;;-143.90;100.00;55581.84;2090365;28;19920;-68
2021/12/01 05:34:27;;;;;;;;;;;;;;;-143.90;100.00;55577.84;2089724;28;20901;-65
2021/12/01 05:35:47;;;;;;;;;;;;;;;-143.90;100.00;55591.75;2089913;28;19921;-65
2021/12/01 05:37:08;;;;;;;;;;;;;;;-143.90;100.00;55625.53;2089946;28;19998;-65
2021/12/01 05:38:27;;;;;;;;;;;;;;;-143.90;100.00;55629.50;2089634;28;20287;-66
2021/12/01 05:39:41;;;;;;;;;;;;;;;-143.90;100.00;55593.75;2090101;28;19925;-65
2021/12/01 05:40:56;;;;;;;;;;;;;;;-143.90;100.00;55595.72;2089563;28;19920;-66
2021/12/01 05:42:14;;;;;;;;;;;;;;;-143.90;100.00;55589.78;2090007;28;20446;-66
2021/12/01 05:43:27;;;;;;;;;;;;;;;-143.90;100.00;55591.75;2089140;28;20565;-65
2021/12/01 05:44:30;;;;;;;;;;;;;;;-143.90;100.00;55599.69;2089604;28;20275;-65
2021/12/01 05:45:45;;;;;;;;;;;;;;;-143.90;100.00;55561.97;2089590;28;19928;-65
2021/12/01 05:47:04;;;;;;;;;;;;;;;-143.90;100.00;55603.69;2089385;28;19920;-65
2021/12/01 05:48:25;;;;;;;;;;;;;;;-143.90;100.00;55617.56;2087742;28;19920;-65
2021/12/01 05:49:46;;;;;;;;;;;;;;;-143.90;100.00;55591.75;2089568;28;19921;-64
2021/12/01 05:51:07;;;;;;;;;;;;;;;-143.90;100.00;55597.72;2089190;28;19965;-64
2021/12/01 05:52:28;;;;;;;;;;;;;;;-143.90;100.00;55627.50;2089208;28;19928;-65
2021/12/01 05:53:48;;;;;;;;;;;;;;;-143.90;100.00;55587.78;2089815;28;20459;-65
2021/12/01 05:55:09;;;;;;;;;;;;;;;-143.90;100.00;55619.56;2089124;28;19970;-65
2021/12/01 05:56:30;;;;;;;;;;;;;;;-143.90;100.00;55607.66;2091069;28;19924;-66
2021/12/01 05:57:51;;;;;;;;;;;;;;;-143.90;100.00;55595.72;2087317;28;19920;-66
2021/12/01 05:59:12;;;;;;;;;;;;;;;-143.90;100.00;55641.41;2089452;28;19924;-65
2021/12/01 06:00:33;;;;;;;;;;;;;;;-143.90;100.00;55603.69;2081127;28;19928;-65
2021/12/01 06:01:54;;;;;;;;;;;;;;;-143.90;100.00;55595.72;2087041;28;20033;-66
2021/12/01 06:03:15;;;;;;;;;;;;;;;-143.90;100.00;55593.75;2090137;28;19927;-65
2021/12/01 06:04:36;;;;;;;;;;;;;;;-143.90;100.00;55605.66;2088581;28;19932;-66
2021/12/01 06:05:57;;;;;;;;;;;;;;;-143.90;100.00;55631.47;2086035;28;19963;-65
2021/12/01 06:07:18;;;;;;;;;;;;;;;-143.90;100.00;55579.84;2088626;28;19990;-67
2021/12/01 06:08:57;;;;;;;;;;;;;;;-143.90;100.00;55611.63;2087924;28;19927;-65
2021/12/01 06:10:18;;;;;;;;;;;;;;;-143.90;100.00;55589.78;2088673;28;20296;-66
2021/12/01 06:11:39;;;;;;;;;;;;;;;-143.90;100.00;55621.53;2089879;28;20386;-66
2021/12/01 06:12:59;;;;;;;;;;;;;;;-143.90;100.00;55556.00;2089038;28;19921;-65
2021/12/01 06:14:23;;;;;;;;;;;;;;;-143.90;100.00;55611.63;2079900;28;19921;-66
2021/12/01 06:15:44;;;;;;;;;;;;;;;-143.90;100.00;55619.56;2085533;28;19921;-65
2021/12/01 06:17:04;;;;;;;;;;;;;;;-143.90;100.00;55560.00;2089360;28;19921;-65
2021/12/01 06:18:25;;;;;;;;;;;;;;;-143.90;100.00;55599.69;2089116;28;20019;-65
2021/12/01 06:19:46;;;;;;;;;;;;;;;-143.90;100.00;55615.59;2088190;28;19920;-65
2021/12/01 06:21:07;;;;;;;;;;;;;;;-143.90;100.00;55619.56;2089776;28;20486;-65
2021/12/01 06:22:28;;;;;;;;;;;;;;;-143.90;100.00;55631.47;2088126;28;19932;-65
2021/12/01 06:23:48;;;;;;;;;;;;;;;-143.90;100.00;55593.75;2089274;28;19974;-65
2021/12/01 06:25:09;;;;;;;;;;;;;;;-143.90;100.00;55613.59;2088135;28;19921;-65
2021/12/01 06:26:30;;;;;;;;;;;;;;;-143.90;100.00;55583.81;2089994;28;19927;-65
2021/12/01 06:27:51;;;;;;;;;;;;;;;-143.90;100.00;55585.81;2090125;28;19921;-65
2021/12/01 06:29:12;;;;;;;;;;;;;;;-143.90;100.00;55595.72;2088599;28;19925;-65
2021/12/01 06:30:12;;;;;;;;;;;;;;;-143.90;100.00;55601.69;2088005;28;19916;-65
2021/12/01 06:31:21;;;;;;;;;;;;;;;-143.90;100.00;55607.66;2088006;28;19954;-65
2021/12/01 06:32:40;;;;;;;;;;;;;;;-143.90;100.00;55593.75;2089501;28;19948;-65
2021/12/01 06:34:00;;;;;;;;;;;;;;;-143.90;100.00;55643.41;2087969;28;20671;-66
2021/12/01 06:35:05;;;;;;;;;;;;;;;-143.90;100.00;55563.97;2088013;28;21536;-64
2021/12/01 06:36:25;;;;;;;;;;;;;;;-143.90;100.00;55552.03;2088887;28;21750;-64
2021/12/01 06:37:34;;;;;;;;;;;;;;;-143.90;100.00;55623.53;2089726;28;19927;-65
2021/12/01 06:38:53;;;;;;;;;;;;;;;-143.90;100.00;55567.94;2088315;28;19921;-64
2021/12/01 06:40:14;;;;;;;;;;;;;;;-143.90;100.00;55603.69;2088349;28;20474;-63
2021/12/01 06:41:35;;;;;;;;;;;;;;;-143.90;100.00;55591.75;2087940;28;19963;-64
2021/12/01 06:42:56;;;;;;;;;;;;;;;-143.90;100.00;55571.91;2089724;28;19928;-65
2021/12/01 06:44:16;;;;;;;;;;;;;;;-143.90;100.00;55595.72;2089381;28;19924;-65
2021/12/01 06:45:37;;;;;;;;;;;;;;;-143.90;100.00;55603.69;2088621;28;19927;-65
2021/12/01 06:46:58;;;;;;;;;;;;;;;-143.90;100.00;55599.69;2088106;28;19920;-65
2021/12/01 06:48:19;;;;;;;;;;;;;;;-143.90;100.00;55619.56;2087378;28;19924;-65
2021/12/01 06:49:44;;;;;;;;;;;;;;;-143.90;100.00;55599.69;2088800;28;19927;-65
2021/12/01 06:51:05;;;;;;;;;;;;;;;-143.90;100.00;55639.41;2088404;28;20038;-65
2021/12/01 06:52:28;;;;;;;;;;;;;;;-143.90;100.00;55613.59;2088636;28;20444;-65